Wrangell Airport
PAWG : now visible

Airfield :











YOU CAN JOIN US ON...

 
LOGIN :

Register | Disclaimer

   EN    FR    IT 

 









Legend :    VFR   Marginal VFR   IFR   Intensive IFR   Very Intensive IFR
Visi :
Ceiling :
>= 8 km
>= 3000ft
5 to 8 km
1000 to 3000 ft
1500m to 5 km
500 to 1000 ft
800 to 1500m
200 to 500 ft
< 800m
< 200 ft
Symbols :   Thunderstorms  Fog  Heavy snow  Heavy precipitations  Wind > 20 kt






- Airport Elevation : 49 ft
- IATA code : WRG


PAWG - Wrangell

CURRENT METAR :
  • 150756Z AUTO 07005KT 10SM BKN008 OVC020 01/M01 A3007 RMK AO2 SLP184 T00061006 FZRANO TSNO

EXPIRED METARs :
  • 150656Z 00000KT 10SM BKN008 OVC020 01/M01 A3007 RMK AO2 SLP182 T00061006
  • 150556Z 19004KT 10SM BKN008 OVC020 01/M01 A3007

TAF PAWG
Valid from the 15 at 06:00 until the 16 at 06:00 UTC


150548Z 1506/1606 10004KT P6SM FEW008 OVC020
TEMPO 1506/1510 00000KT 5SM BR BKN008 OVC012
FM151500 10006KT P6SM SCT020
FM160200 10010KT P6SM BKN040 WS020/13025KT AMD LTD TO CLD VIS AND WIND 1506/1515



MET'MAP, your aeronautical weather chart ! - Copyright ORBIFLY December 2007 - Disclaimer

ORBIFLY MET'MAP TEAM :

Programming & Development : Alexandra Zaïnal
Concept & original design : Baudouin d'Aumeries
Assistance for programming : Marc-Olivier Méhu
Technical & hardware support : Manuel Goepfert

Contact : metmap@orbifly.com




SOURCES & CREDITS :

   NOAA       Earth
Advisory